West Lebanon, Indiana
Current Conditions -  °F | °C
As of 7:15 PM on Thursday 27 Nov 2014 (Local Time) from KDNV Reporting Station
Overcast Overcast  
Wind Chill: 15°   Ceiling: 3500
Heat Index: 25°   Visibility: 10mi
Dew Point: 19°   Wind: 9mph
Humidity: 78%   Direction: 310°NW
Pressure: 30.4"   Gusts: NA
Location:  40.27°N, 87.39°W
Report Text: KDNV 280015Z AUTO 31008KT 10SM SCT019 SCT030 OVC035 M04/M07 A3040 RMK AO2 T10411075
Loading
Personal Weather Stations






























Interactive Weather Map New forecast layout! Learn more

10-Day Weather Forecast

Advertisements
Track Severe Weather on mobile